PWSweather.com
Personal Weather Stations
Station Observations
CALONGE
CalongeES 17251

CalongeES 17251

Lat: 41.85972222, Lon: 3.077777778

Elevation: 16

Station Type: Oregon WMR928N

www.calonge-meteoweb.com

High Low Average
Temperature 61.7°F16.5°C 48.9°F9.4°C 53.6°F12.0°C
Dew Point 34.5°F1.4°C 21.9°F-5.6°C 29.1°F-1.6°C
Winds 9.4 mph 15.1 kmh Calm Calm 5.0 mph WNW8.0 kmh WNW
Wind Gusts 16.1 mph25.9 kmh 5.3 mph8.5 kmh 11.0 mph17.7 kmh
Humidity 46% 30% 39%
Pressure 30.42 in1030.1 mb 30.09 in1019.0 mb -
Precipitation 0.00 in0.0 mm - -
Hour Temp Dew Point Humidity Winds Wind Gusts Pressure Precip Precip Rate Daily Precip Total
12:00 AM 54.0°F12.2°C 31.4°F-0.3°C 42% 6.4 mph NW10.3 kmh NW 14.4 mph23.2 kmh 30.09 in1019.0 mb 0.00 in0.0 mm 0.00 in0.0 mm 0.00 in0.0 mm
12:15 AM 53.4°F11.9°C 32.0°F0.0°C 44% 7.0 mph NW11.3 kmh NW 10.5 mph16.9 kmh 30.09 in1019.0 mb 0.00 in0.0 mm 0.00 in0.0 mm 0.00 in0.0 mm
12:30 AM 53.1°F11.7°C 32.3°F0.2°C 45% 5.9 mph NW9.5 kmh NW 10.5 mph16.9 kmh 30.09 in1019.0 mb 0.00 in0.0 mm 0.00 in0.0 mm 0.00 in0.0 mm
12:45 AM 52.9°F11.6°C 32.6°F0.3°C 46% 7.6 mph NW12.2 kmh NW 12.6 mph20.3 kmh 30.09 in1019.0 mb 0.00 in0.0 mm 0.00 in0.0 mm 0.00 in0.0 mm
01:00 AM 52.5°F11.4°C 32.3°F0.2°C 46% 7.6 mph WNW12.2 kmh WNW 12.0 mph19.3 kmh 30.09 in1019.0 mb 0.00 in0.0 mm 0.00 in0.0 mm 0.00 in0.0 mm
01:15 AM 52.3°F11.3°C 32.2°F0.1°C 46% 6.4 mph NW10.3 kmh NW 10.8 mph17.4 kmh 30.09 in1019.0 mb 0.00 in0.0 mm 0.00 in0.0 mm 0.00 in0.0 mm
01:30 AM 52.3°F11.3°C 32.2°F0.1°C 46% 4.7 mph NW7.6 kmh NW 10.8 mph17.4 kmh 30.09 in1019.0 mb 0.00 in0.0 mm 0.00 in0.0 mm 0.00 in0.0 mm
01:45 AM 52.2°F11.2°C 30.9°F-0.6°C 44% 8.8 mph NW14.2 kmh NW 11.4 mph18.3 kmh 30.09 in1019.0 mb 0.00 in0.0 mm 0.00 in0.0 mm 0.00 in0.0 mm
02:00 AM 52.3°F11.3°C 29.9°F-1.2°C 42% 5.3 mph NW8.5 kmh NW 13.8 mph22.2 kmh 30.12 in1020.0 mb 0.00 in0.0 mm 0.00 in0.0 mm 0.00 in0.0 mm
02:15 AM 52.2°F11.2°C 29.1°F-1.6°C 41% 7.0 mph WNW11.3 kmh WNW 13.8 mph22.2 kmh 30.12 in1020.0 mb 0.00 in0.0 mm 0.00 in0.0 mm 0.00 in0.0 mm
02:30 AM 52.2°F11.2°C 28.5°F-1.9°C 40% 6.4 mph NW10.3 kmh NW 10.8 mph17.4 kmh 30.12 in1020.0 mb 0.00 in0.0 mm 0.00 in0.0 mm 0.00 in0.0 mm
02:45 AM 52.2°F11.2°C 28.5°F-1.9°C 40% 7.6 mph WNW12.2 kmh WNW 13.2 mph21.2 kmh 30.12 in1020.0 mb 0.00 in0.0 mm 0.00 in0.0 mm 0.00 in0.0 mm
03:00 AM 52.2°F11.2°C 27.9°F-2.3°C 39% 4.7 mph NW7.6 kmh NW 10.8 mph17.4 kmh 30.12 in1020.0 mb 0.00 in0.0 mm 0.00 in0.0 mm 0.00 in0.0 mm
03:15 AM 52.0°F11.1°C 29.6°F-1.3°C 42% Calm Calm 8.2 mph13.2 kmh 30.12 in1020.0 mb 0.00 in0.0 mm 0.00 in0.0 mm 0.00 in0.0 mm
03:30 AM 52.0°F11.1°C 27.1°F-2.7°C 38% 4.1 mph NW6.6 kmh NW 10.8 mph17.4 kmh 30.12 in1020.0 mb 0.00 in0.0 mm 0.00 in0.0 mm 0.00 in0.0 mm
03:45 AM 52.2°F11.2°C 26.0°F-3.3°C 36% 3.5 mph NW5.6 kmh NW 11.4 mph18.3 kmh 30.12 in1020.0 mb 0.00 in0.0 mm 0.00 in0.0 mm 0.00 in0.0 mm
04:00 AM 51.8°F11.0°C 26.3°F-3.2°C 37% 5.9 mph NW9.5 kmh NW 10.5 mph16.9 kmh 30.12 in1020.0 mb 0.00 in0.0 mm 0.00 in0.0 mm 0.00 in0.0 mm
04:15 AM 51.3°F10.7°C 27.7°F-2.4°C 40% 5.9 mph NW9.5 kmh NW 10.0 mph16.1 kmh 30.15 in1021.0 mb 0.00 in0.0 mm 0.00 in0.0 mm 0.00 in0.0 mm
04:30 AM 50.9°F10.5°C 28.6°F-1.9°C 42% 4.7 mph WNW7.6 kmh WNW 8.2 mph13.2 kmh 30.12 in1020.0 mb 0.00 in0.0 mm 0.00 in0.0 mm 0.00 in0.0 mm
04:45 AM 50.7°F10.4°C 27.2°F-2.7°C 40% 4.1 mph WNW6.6 kmh WNW 10.5 mph16.9 kmh 30.12 in1020.0 mb 0.00 in0.0 mm 0.00 in0.0 mm 0.00 in0.0 mm
05:00 AM 50.9°F10.5°C 25.5°F-3.6°C 37% 8.8 mph WNW14.2 kmh WNW 10.0 mph16.1 kmh 30.12 in1020.0 mb 0.00 in0.0 mm 0.00 in0.0 mm 0.00 in0.0 mm
05:15 AM 51.4°F10.8°C 25.3°F-3.7°C 36% 5.3 mph WNW8.5 kmh WNW 13.8 mph22.2 kmh 30.15 in1021.0 mb 0.00 in0.0 mm 0.00 in0.0 mm 0.00 in0.0 mm
05:30 AM 52.0°F11.1°C 23.0°F-5.0°C 32% 5.3 mph NW8.5 kmh NW 11.4 mph18.3 kmh 30.15 in1021.0 mb 0.00 in0.0 mm 0.00 in0.0 mm 0.00 in0.0 mm
05:45 AM 52.5°F11.4°C 21.9°F-5.6°C 30% 8.2 mph NW13.2 kmh NW 11.4 mph18.3 kmh 30.15 in1021.0 mb 0.00 in0.0 mm 0.00 in0.0 mm 0.00 in0.0 mm
06:00 AM 52.5°F11.4°C 21.9°F-5.6°C 30% 7.6 mph NW12.2 kmh NW 12.6 mph20.3 kmh 30.15 in1021.0 mb 0.00 in0.0 mm 0.00 in0.0 mm 0.00 in0.0 mm
06:15 AM 52.5°F11.4°C 22.7°F-5.2°C 31% 3.5 mph NW5.6 kmh NW 10.8 mph17.4 kmh 30.15 in1021.0 mb 0.00 in0.0 mm 0.00 in0.0 mm 0.00 in0.0 mm
06:30 AM 52.0°F11.1°C 22.2°F-5.4°C 31% 7.0 mph NW11.3 kmh NW 10.0 mph16.1 kmh 30.18 in1022.0 mb 0.00 in0.0 mm 0.00 in0.0 mm 0.00 in0.0 mm
06:45 AM 51.6°F10.9°C 24.1°F-4.4°C 34% 4.7 mph NW7.6 kmh NW 10.5 mph16.9 kmh 30.18 in1022.0 mb 0.00 in0.0 mm 0.00 in0.0 mm 0.00 in0.0 mm
07:00 AM 51.1°F10.6°C 25.0°F-3.9°C 36% 5.3 mph NW8.5 kmh NW 10.0 mph16.1 kmh 30.18 in1022.0 mb 0.00 in0.0 mm 0.00 in0.0 mm 0.00 in0.0 mm
07:15 AM 50.7°F10.4°C 25.4°F-3.7°C 37% 4.7 mph NW7.6 kmh NW 11.4 mph18.3 kmh 30.18 in1022.0 mb 0.00 in0.0 mm 0.00 in0.0 mm 0.00 in0.0 mm
07:30 AM 50.2°F10.1°C 25.5°F-3.6°C 38% 4.7 mph NW7.6 kmh NW 8.2 mph13.2 kmh 30.18 in1022.0 mb 0.00 in0.0 mm 0.00 in0.0 mm 0.00 in0.0 mm
07:45 AM 50.4°F10.2°C 26.9°F-2.8°C 40% 7.0 mph NW11.3 kmh NW 13.2 mph21.2 kmh 30.18 in1022.0 mb 0.00 in0.0 mm 0.00 in0.0 mm 0.00 in0.0 mm
08:00 AM 50.4°F10.2°C 28.1°F-2.2°C 42% 6.4 mph NW10.3 kmh NW 12.6 mph20.3 kmh 30.18 in1022.0 mb 0.00 in0.0 mm 0.00 in0.0 mm 0.00 in0.0 mm
08:15 AM 50.2°F10.1°C 28.5°F-1.9°C 43% 8.8 mph NW14.2 kmh NW 13.2 mph21.2 kmh 30.21 in1023.0 mb 0.00 in0.0 mm 0.00 in0.0 mm 0.00 in0.0 mm
08:30 AM 50.4°F10.2°C 28.7°F-1.8°C 43% 7.6 mph NW12.2 kmh NW 14.4 mph23.2 kmh 30.21 in1023.0 mb 0.00 in0.0 mm 0.00 in0.0 mm 0.00 in0.0 mm
08:45 AM 50.5°F10.3°C 28.8°F-1.8°C 43% 6.4 mph NW10.3 kmh NW 10.8 mph17.4 kmh 30.21 in1023.0 mb 0.00 in0.0 mm 0.00 in0.0 mm 0.00 in0.0 mm
09:00 AM 51.1°F10.6°C 28.8°F-1.8°C 42% 7.0 mph NW11.3 kmh NW 14.9 mph24.0 kmh 30.24 in1024.0 mb 0.00 in0.0 mm 0.00 in0.0 mm 0.00 in0.0 mm
09:15 AM 51.1°F10.6°C 29.9°F-1.2°C 44% 6.4 mph NW10.3 kmh NW 13.2 mph21.2 kmh 30.24 in1024.0 mb 0.00 in0.0 mm 0.00 in0.0 mm 0.00 in0.0 mm
09:30 AM 50.9°F10.5°C 30.3°F-0.9°C 45% 7.6 mph NW12.2 kmh NW 11.4 mph18.3 kmh 30.24 in1024.0 mb 0.00 in0.0 mm 0.00 in0.0 mm 0.00 in0.0 mm
09:45 AM 51.1°F10.6°C 30.5°F-0.8°C 45% 8.8 mph NW14.2 kmh NW 13.8 mph22.2 kmh 30.24 in1024.0 mb 0.00 in0.0 mm 0.00 in0.0 mm 0.00 in0.0 mm
10:00 AM 51.4°F10.8°C 30.2°F-1.0°C 44% 6.4 mph NW10.3 kmh NW 11.4 mph18.3 kmh 30.24 in1024.0 mb 0.00 in0.0 mm 0.00 in0.0 mm 0.00 in0.0 mm
10:15 AM 51.6°F10.9°C 30.9°F-0.6°C 45% 5.3 mph NW8.5 kmh NW 9.4 mph15.1 kmh 30.24 in1024.0 mb 0.00 in0.0 mm 0.00 in0.0 mm 0.00 in0.0 mm
10:30 AM 52.0°F11.1°C 30.2°F-1.0°C 43% 5.9 mph NW9.5 kmh NW 10.8 mph17.4 kmh 30.24 in1024.0 mb 0.00 in0.0 mm 0.00 in0.0 mm 0.00 in0.0 mm
10:45 AM 52.9°F11.6°C 29.8°F-1.2°C 41% 5.9 mph NW9.5 kmh NW 11.4 mph18.3 kmh 30.27 in1025.1 mb 0.00 in0.0 mm 0.00 in0.0 mm 0.00 in0.0 mm
11:00 AM 54.0°F12.2°C 28.9°F-1.7°C 38% 6.4 mph NW10.3 kmh NW 13.2 mph21.2 kmh 30.27 in1025.1 mb 0.00 in0.0 mm 0.00 in0.0 mm 0.00 in0.0 mm
11:15 AM 54.9°F12.7°C 29.7°F-1.3°C 38% 5.3 mph NW8.5 kmh NW 13.8 mph22.2 kmh 30.27 in1025.1 mb 0.00 in0.0 mm 0.00 in0.0 mm 0.00 in0.0 mm
11:30 AM 55.9°F13.3°C 30.0°F-1.1°C 37% 7.0 mph NW11.3 kmh NW 12.6 mph20.3 kmh 30.27 in1025.1 mb 0.00 in0.0 mm 0.00 in0.0 mm 0.00 in0.0 mm
11:45 AM 56.7°F13.7°C 30.0°F-1.1°C 36% 7.0 mph NW11.3 kmh NW 10.8 mph17.4 kmh 30.27 in1025.1 mb 0.00 in0.0 mm 0.00 in0.0 mm 0.00 in0.0 mm
12:00 PM 57.0°F13.9°C 30.3°F-0.9°C 36% 4.7 mph NW7.6 kmh NW 13.2 mph21.2 kmh 30.27 in1025.1 mb 0.00 in0.0 mm 0.00 in0.0 mm 0.00 in0.0 mm
12:15 PM 57.9°F14.4°C 30.4°F-0.9°C 35% 4.1 mph N6.6 kmh N 10.0 mph16.1 kmh 30.27 in1025.1 mb 0.00 in0.0 mm 0.00 in0.0 mm 0.00 in0.0 mm
12:30 PM 58.3°F14.6°C 31.4°F-0.3°C 36% 4.7 mph N7.6 kmh N 8.2 mph13.2 kmh 30.30 in1026.1 mb 0.00 in0.0 mm 0.00 in0.0 mm 0.00 in0.0 mm
01:00 PM 59.5°F15.3°C 31.8°F-0.1°C 35% 4.1 mph N6.6 kmh N 10.8 mph17.4 kmh 30.27 in1025.1 mb 0.00 in0.0 mm 0.00 in0.0 mm 0.00 in0.0 mm
01:15 PM 59.0°F15.0°C 32.1°F0.1°C 36% Calm Calm 8.2 mph13.2 kmh 30.27 in1025.1 mb 0.00 in0.0 mm 0.00 in0.0 mm 0.00 in0.0 mm
01:30 PM 59.9°F15.5°C 32.9°F0.5°C 36% 5.3 mph NW8.5 kmh NW 7.6 mph12.2 kmh 30.27 in1025.1 mb 0.00 in0.0 mm 0.00 in0.0 mm 0.00 in0.0 mm
01:45 PM 59.5°F15.3°C 32.5°F0.3°C 36% 4.1 mph NNE6.6 kmh NNE 8.2 mph13.2 kmh 30.27 in1025.1 mb 0.00 in0.0 mm 0.00 in0.0 mm 0.00 in0.0 mm
02:00 PM 58.8°F14.9°C 30.5°F-0.8°C 34% 8.2 mph NNE13.2 kmh NNE 10.8 mph17.4 kmh 30.27 in1025.1 mb 0.00 in0.0 mm 0.00 in0.0 mm 0.00 in0.0 mm
02:15 PM 58.3°F14.6°C 30.7°F-0.7°C 35% Calm Calm 8.8 mph14.2 kmh 30.27 in1025.1 mb 0.00 in0.0 mm 0.00 in0.0 mm 0.00 in0.0 mm
02:30 PM 57.9°F14.4°C 30.4°F-0.9°C 35% Calm Calm 7.0 mph11.3 kmh 30.27 in1025.1 mb 0.00 in0.0 mm 0.00 in0.0 mm 0.00 in0.0 mm
02:45 PM 59.0°F15.0°C 30.6°F-0.8°C 34% 7.6 mph NNE12.2 kmh NNE 10.5 mph16.9 kmh 30.27 in1025.1 mb 0.00 in0.0 mm 0.00 in0.0 mm 0.00 in0.0 mm
03:00 PM 60.1°F15.6°C 29.3°F-1.5°C 31% 5.9 mph NW9.5 kmh NW 10.0 mph16.1 kmh 30.27 in1025.1 mb 0.00 in0.0 mm 0.00 in0.0 mm 0.00 in0.0 mm
03:15 PM 61.0°F16.1°C 32.4°F0.2°C 34% Calm Calm 5.3 mph8.5 kmh 30.27 in1025.1 mb 0.00 in0.0 mm 0.00 in0.0 mm 0.00 in0.0 mm
03:30 PM 61.3°F16.3°C 31.2°F-0.4°C 32% 5.9 mph ENE9.5 kmh ENE 8.2 mph13.2 kmh 30.27 in1025.1 mb 0.00 in0.0 mm 0.00 in0.0 mm 0.00 in0.0 mm
03:45 PM 61.7°F16.5°C 33.7°F0.9°C 35% 2.9 mph S4.7 kmh S 7.0 mph11.3 kmh 30.27 in1025.1 mb 0.00 in0.0 mm 0.00 in0.0 mm 0.00 in0.0 mm
04:00 PM 61.7°F16.5°C 34.5°F1.4°C 36% Calm Calm 8.2 mph13.2 kmh 30.27 in1025.1 mb 0.00 in0.0 mm 0.00 in0.0 mm 0.00 in0.0 mm
04:15 PM 61.3°F16.3°C 33.4°F0.8°C 35% 9.4 mph ESE15.1 kmh ESE 13.8 mph22.2 kmh 30.27 in1025.1 mb 0.00 in0.0 mm 0.00 in0.0 mm 0.00 in0.0 mm
04:30 PM 60.6°F15.9°C 30.6°F-0.8°C 32% 2.9 mph NW4.7 kmh NW 10.0 mph16.1 kmh 30.27 in1025.1 mb 0.00 in0.0 mm 0.00 in0.0 mm 0.00 in0.0 mm
04:45 PM 59.2°F15.1°C 30.8°F-0.7°C 34% 7.6 mph NNW12.2 kmh NNW 16.1 mph25.9 kmh 30.27 in1025.1 mb 0.00 in0.0 mm 0.00 in0.0 mm 0.00 in0.0 mm
05:00 PM 58.1°F14.5°C 30.6°F-0.8°C 35% 3.5 mph N5.6 kmh N 14.4 mph23.2 kmh 30.27 in1025.1 mb 0.00 in0.0 mm 0.00 in0.0 mm 0.00 in0.0 mm
05:15 PM 57.4°F14.1°C 29.2°F-1.6°C 34% 6.4 mph NNW10.3 kmh NNW 11.4 mph18.3 kmh 30.27 in1025.1 mb 0.00 in0.0 mm 0.00 in0.0 mm 0.00 in0.0 mm
05:30 PM 56.5°F13.6°C 29.1°F-1.6°C 35% 7.0 mph NNW11.3 kmh NNW 10.5 mph16.9 kmh 30.30 in1026.1 mb 0.00 in0.0 mm 0.00 in0.0 mm 0.00 in0.0 mm
05:45 PM 55.6°F13.1°C 28.3°F-2.1°C 35% 8.8 mph NNW14.2 kmh NNW 11.4 mph18.3 kmh 30.30 in1026.1 mb 0.00 in0.0 mm 0.00 in0.0 mm 0.00 in0.0 mm
06:00 PM 54.9°F12.7°C 28.4°F-2.0°C 36% 4.7 mph NNW7.6 kmh NNW 8.2 mph13.2 kmh 30.30 in1026.1 mb 0.00 in0.0 mm 0.00 in0.0 mm 0.00 in0.0 mm
06:15 PM 54.1°F12.3°C 28.4°F-2.0°C 37% 5.3 mph NW8.5 kmh NW 10.8 mph17.4 kmh 30.30 in1026.1 mb 0.00 in0.0 mm 0.00 in0.0 mm 0.00 in0.0 mm
06:30 PM 53.6°F12.0°C 28.6°F-1.9°C 38% 4.7 mph NW7.6 kmh NW 7.6 mph12.2 kmh 30.33 in1027.1 mb 0.00 in0.0 mm 0.00 in0.0 mm 0.00 in0.0 mm
06:45 PM 53.4°F11.9°C 29.1°F-1.6°C 39% 4.7 mph NW7.6 kmh NW 11.4 mph18.3 kmh 30.33 in1027.1 mb 0.00 in0.0 mm 0.00 in0.0 mm 0.00 in0.0 mm
07:00 PM 53.1°F11.7°C 28.7°F-1.8°C 39% 5.9 mph NW9.5 kmh NW 10.5 mph16.9 kmh 30.33 in1027.1 mb 0.00 in0.0 mm 0.00 in0.0 mm 0.00 in0.0 mm
07:15 PM 52.9°F11.6°C 29.2°F-1.6°C 40% 5.3 mph NW8.5 kmh NW 16.1 mph25.9 kmh 30.36 in1028.1 mb 0.00 in0.0 mm 0.00 in0.0 mm 0.00 in0.0 mm
07:30 PM 52.7°F11.5°C 29.6°F-1.3°C 41% 4.7 mph NNW7.6 kmh NNW 10.8 mph17.4 kmh 30.36 in1028.1 mb 0.00 in0.0 mm 0.00 in0.0 mm 0.00 in0.0 mm
07:45 PM 52.7°F11.5°C 30.2°F-1.0°C 42% 7.0 mph NNW11.3 kmh NNW 13.2 mph21.2 kmh 30.36 in1028.1 mb 0.00 in0.0 mm 0.00 in0.0 mm 0.00 in0.0 mm
08:00 PM 52.5°F11.4°C 30.6°F-0.8°C 43% 5.3 mph NNW8.5 kmh NNW 10.0 mph16.1 kmh 30.36 in1028.1 mb 0.00 in0.0 mm 0.00 in0.0 mm 0.00 in0.0 mm
08:15 PM 52.2°F11.2°C 30.3°F-0.9°C 43% 6.4 mph NW10.3 kmh NW 10.8 mph17.4 kmh 30.36 in1028.1 mb 0.00 in0.0 mm 0.00 in0.0 mm 0.00 in0.0 mm
08:30 PM 51.8°F11.0°C 30.0°F-1.1°C 43% 5.3 mph NW8.5 kmh NW 10.0 mph16.1 kmh 30.36 in1028.1 mb 0.00 in0.0 mm 0.00 in0.0 mm 0.00 in0.0 mm
08:45 PM 51.4°F10.8°C 29.7°F-1.3°C 43% 2.9 mph NNW4.7 kmh NNW 8.2 mph13.2 kmh 30.36 in1028.1 mb 0.00 in0.0 mm 0.00 in0.0 mm 0.00 in0.0 mm
09:00 PM 50.9°F10.5°C 28.6°F-1.9°C 42% 4.1 mph NNW6.6 kmh NNW 8.2 mph13.2 kmh 30.36 in1028.1 mb 0.00 in0.0 mm 0.00 in0.0 mm 0.00 in0.0 mm
09:15 PM 50.5°F10.3°C 28.3°F-2.1°C 42% 3.5 mph NNW5.6 kmh NNW 7.0 mph11.3 kmh 30.39 in1029.1 mb 0.00 in0.0 mm 0.00 in0.0 mm 0.00 in0.0 mm
09:30 PM 50.2°F10.1°C 27.9°F-2.3°C 42% 5.3 mph NW8.5 kmh NW 8.2 mph13.2 kmh 30.39 in1029.1 mb 0.00 in0.0 mm 0.00 in0.0 mm 0.00 in0.0 mm
09:45 PM 49.6°F9.8°C 28.0°F-2.2°C 43% 4.1 mph WNW6.6 kmh WNW 10.0 mph16.1 kmh 30.36 in1028.1 mb 0.00 in0.0 mm 0.00 in0.0 mm 0.00 in0.0 mm
10:00 PM 50.0°F10.0°C 27.2°F-2.7°C 41% 2.9 mph NW4.7 kmh NW 7.6 mph12.2 kmh 30.36 in1028.1 mb 0.00 in0.0 mm 0.00 in0.0 mm 0.00 in0.0 mm
10:15 PM 50.0°F10.0°C 27.2°F-2.7°C 41% 4.7 mph NW7.6 kmh NW 8.2 mph13.2 kmh 30.39 in1029.1 mb 0.00 in0.0 mm 0.00 in0.0 mm 0.00 in0.0 mm
10:30 PM 49.8°F9.9°C 27.6°F-2.4°C 42% Calm Calm 10.0 mph16.1 kmh 30.39 in1029.1 mb 0.00 in0.0 mm 0.00 in0.0 mm 0.00 in0.0 mm
10:45 PM 49.8°F9.9°C 28.2°F-2.1°C 43% 5.3 mph WNW8.5 kmh WNW 8.8 mph14.2 kmh 30.39 in1029.1 mb 0.00 in0.0 mm 0.00 in0.0 mm 0.00 in0.0 mm
11:00 PM 49.6°F9.8°C 28.0°F-2.2°C 43% 4.1 mph WNW6.6 kmh WNW 8.2 mph13.2 kmh 30.39 in1029.1 mb 0.00 in0.0 mm 0.00 in0.0 mm 0.00 in0.0 mm
11:15 PM 49.5°F9.7°C 28.4°F-2.0°C 44% 4.7 mph NW7.6 kmh NW 7.0 mph11.3 kmh 30.39 in1029.1 mb 0.00 in0.0 mm 0.00 in0.0 mm 0.00 in0.0 mm
11:30 PM 49.3°F9.6°C 28.8°F-1.8°C 45% 4.7 mph NW7.6 kmh NW 8.2 mph13.2 kmh 30.42 in1030.1 mb 0.00 in0.0 mm 0.00 in0.0 mm 0.00 in0.0 mm
11:45 PM 48.9°F9.4°C 28.5°F-1.9°C 45% 3.5 mph NW5.6 kmh NW 7.6 mph12.2 kmh 30.42 in1030.1 mb 0.00 in0.0 mm 0.00 in0.0 mm 0.00 in0.0 mm